sensor_id;sensor_type;location;lat;lon;timestamp;P1;durP1;ratioP1;P2;durP2;ratioP2
79015;SDS011;72726;44.842;37.556;2024-02-16T00:00:02;11.10;;;4.93;;
79015;SDS011;72726;44.842;37.556;2024-02-16T00:01:12;8.45;;;3.80;;
79015;SDS011;72726;44.842;37.556;2024-02-16T00:02:14;9.25;;;4.38;;
79015;SDS011;72726;44.842;37.556;2024-02-16T00:03:16;10.10;;;4.18;;
79015;SDS011;72726;44.842;37.556;2024-02-16T00:04:17;9.70;;;4.25;;
79015;SDS011;72726;44.842;37.556;2024-02-16T00:05:19;9.23;;;4.18;;
79015;SDS011;72726;44.842;37.556;2024-02-16T00:06:20;10.15;;;4.63;;
79015;SDS011;72726;44.842;37.556;2024-02-16T00:07:21;10.35;;;4.72;;
79015;SDS011;72726;44.842;37.556;2024-02-16T00:08:23;8.68;;;4.07;;
79015;SDS011;72726;44.842;37.556;2024-02-16T00:09:24;8.77;;;4.00;;
79015;SDS011;72726;44.842;37.556;2024-02-16T00:10:25;8.50;;;3.75;;
79015;SDS011;72726;44.842;37.556;2024-02-16T00:11:26;9.35;;;3.97;;
79015;SDS011;72726;44.842;37.556;2024-02-16T00:12:29;10.13;;;4.25;;
79015;SDS011;72726;44.842;37.556;2024-02-16T00:13:32;8.35;;;3.78;;
79015;SDS011;72726;44.842;37.556;2024-02-16T00:14:33;8.18;;;3.67;;
79015;SDS011;72726;44.842;37.556;2024-02-16T00:15:34;7.68;;;3.60;;
79015;SDS011;72726;44.842;37.556;2024-02-16T00:16:36;12.82;;;4.10;;
79015;SDS011;72726;44.842;37.556;2024-02-16T00:17:37;8.15;;;3.80;;
79015;SDS011;72726;44.842;37.556;2024-02-16T00:18:38;10.45;;;4.28;;
79015;SDS011;72726;44.842;37.556;2024-02-16T00:19:39;9.40;;;4.05;;
79015;SDS011;72726;44.842;37.556;2024-02-16T00:20:41;8.05;;;3.88;;
79015;SDS011;72726;44.842;37.556;2024-02-16T00:21:42;9.98;;;3.80;;
79015;SDS011;72726;44.842;37.556;2024-02-16T00:22:44;7.32;;;3.70;;
79015;SDS011;72726;44.842;37.556;2024-02-16T00:23:45;8.68;;;3.80;;
79015;SDS011;72726;44.842;37.556;2024-02-16T00:24:47;8.13;;;4.00;;
79015;SDS011;72726;44.842;37.556;2024-02-16T00:25:48;8.13;;;3.55;;
79015;SDS011;72726;44.842;37.556;2024-02-16T00:26:50;11.18;;;4.22;;
79015;SDS011;72726;44.842;37.556;2024-02-16T00:27:51;8.95;;;3.55;;
79015;SDS011;72726;44.842;37.556;2024-02-16T00:28:54;7.53;;;3.63;;
79015;SDS011;72726;44.842;37.556;2024-02-16T00:29:55;11.50;;;4.20;;
79015;SDS011;72726;44.842;37.556;2024-02-16T00:30:56;10.23;;;3.97;;
79015;SDS011;72726;44.842;37.556;2024-02-16T00:31:57;10.05;;;3.90;;
79015;SDS011;72726;44.842;37.556;2024-02-16T00:33:01;6.40;;;2.95;;
79015;SDS011;72726;44.842;37.556;2024-02-16T00:34:03;8.43;;;3.58;;
79015;SDS011;72726;44.842;37.556;2024-02-16T00:35:05;9.35;;;3.63;;
79015;SDS011;72726;44.842;37.556;2024-02-16T00:36:07;7.68;;;3.20;;
79015;SDS011;72726;44.842;37.556;2024-02-16T00:37:08;8.38;;;3.72;;
79015;SDS011;72726;44.842;37.556;2024-02-16T00:38:11;7.30;;;3.40;;
79015;SDS011;72726;44.842;37.556;2024-02-16T00:39:12;7.57;;;3.17;;
79015;SDS011;72726;44.842;37.556;2024-02-16T00:40:14;6.93;;;3.20;;
79015;SDS011;72726;44.842;37.556;2024-02-16T00:41:21;7.55;;;3.30;;
79015;SDS011;72726;44.842;37.556;2024-02-16T00:42:23;9.05;;;3.50;;
79015;SDS011;72726;44.842;37.556;2024-02-16T00:43:25;7.47;;;3.65;;
79015;SDS011;72726;44.842;37.556;2024-02-16T00:44:26;12.65;;;3.75;;
79015;SDS011;72726;44.842;37.556;2024-02-16T00:45:27;8.75;;;3.20;;
79015;SDS011;72726;44.842;37.556;2024-02-16T00:46:29;6.57;;;3.03;;
79015;SDS011;72726;44.842;37.556;2024-02-16T00:47:30;6.57;;;3.10;;
79015;SDS011;72726;44.842;37.556;2024-02-16T00:48:31;7.65;;;2.90;;
79015;SDS011;72726;44.842;37.556;2024-02-16T00:49:33;9.60;;;3.20;;
79015;SDS011;72726;44.842;37.556;2024-02-16T00:50:34;7.60;;;3.25;;
79015;SDS011;72726;44.842;37.556;2024-02-16T00:51:36;8.32;;;3.60;;
79015;SDS011;72726;44.842;37.556;2024-02-16T00:52:38;7.65;;;2.95;;
79015;SDS011;72726;44.842;37.556;2024-02-16T00:53:40;8.07;;;3.70;;
79015;SDS011;72726;44.842;37.556;2024-02-16T00:54:41;8.13;;;3.42;;
79015;SDS011;72726;44.842;37.556;2024-02-16T00:55:43;8.75;;;3.63;;
79015;SDS011;72726;44.842;37.556;2024-02-16T00:56:46;7.38;;;3.45;;
79015;SDS011;72726;44.842;37.556;2024-02-16T00:57:48;8.93;;;3.78;;
79015;SDS011;72726;44.842;37.556;2024-02-16T00:58:50;7.72;;;3.50;;
79015;SDS011;72726;44.842;37.556;2024-02-16T00:59:52;9.02;;;3.72;;
79015;SDS011;72726;44.842;37.556;2024-02-16T01:00:53;8.98;;;4.00;;
79015;SDS011;72726;44.842;37.556;2024-02-16T01:01:54;7.80;;;3.30;;
79015;SDS011;72726;44.842;37.556;2024-02-16T01:02:56;6.57;;;3.08;;
79015;SDS011;72726;44.842;37.556;2024-02-16T01:03:57;6.70;;;3.20;;
79015;SDS011;72726;44.842;37.556;2024-02-16T01:04:58;6.97;;;2.95;;
79015;SDS011;72726;44.842;37.556;2024-02-16T01:06:03;7.95;;;3.30;;
79015;SDS011;72726;44.842;37.556;2024-02-16T01:07:05;7.45;;;3.38;;
79015;SDS011;72726;44.842;37.556;2024-02-16T01:08:06;6.55;;;2.83;;
79015;SDS011;72726;44.842;37.556;2024-02-16T01:09:08;6.25;;;2.78;;
79015;SDS011;72726;44.842;37.556;2024-02-16T01:10:09;8.00;;;2.88;;
79015;SDS011;72726;44.842;37.556;2024-02-16T01:11:11;6.15;;;2.25;;
79015;SDS011;72726;44.842;37.556;2024-02-16T01:12:12;6.30;;;2.53;;
79015;SDS011;72726;44.842;37.556;2024-02-16T01:13:14;5.38;;;2.40;;
79015;SDS011;72726;44.842;37.556;2024-02-16T01:14:15;7.65;;;3.00;;
79015;SDS011;72726;44.842;37.556;2024-02-16T01:15:16;6.22;;;2.70;;
79015;SDS011;72726;44.842;37.556;2024-02-16T01:16:18;6.75;;;3.03;;
79015;SDS011;72726;44.842;37.556;2024-02-16T01:17:19;6.55;;;2.88;;
79015;SDS011;72726;44.842;37.556;2024-02-16T01:18:20;7.03;;;2.88;;
79015;SDS011;72726;44.842;37.556;2024-02-16T01:19:22;6.82;;;2.83;;
79015;SDS011;72726;44.842;37.556;2024-02-16T01:20:23;8.65;;;2.90;;
79015;SDS011;72726;44.842;37.556;2024-02-16T01:21:24;8.05;;;3.20;;
79015;SDS011;72726;44.842;37.556;2024-02-16T01:22:26;6.53;;;2.92;;
79015;SDS011;72726;44.842;37.556;2024-02-16T01:23:30;6.70;;;3.00;;
79015;SDS011;72726;44.842;37.556;2024-02-16T01:24:31;6.85;;;2.90;;
79015;SDS011;72726;44.842;37.556;2024-02-16T01:25:32;6.70;;;3.45;;
79015;SDS011;72726;44.842;37.556;2024-02-16T01:26:34;9.93;;;2.60;;
79015;SDS011;72726;44.842;37.556;2024-02-16T01:27:35;7.45;;;2.70;;
79015;SDS011;72726;44.842;37.556;2024-02-16T01:28:37;7.18;;;2.67;;
79015;SDS011;72726;44.842;37.556;2024-02-16T01:29:38;9.82;;;2.85;;
79015;SDS011;72726;44.842;37.556;2024-02-16T01:30:40;6.60;;;3.00;;
79015;SDS011;72726;44.842;37.556;2024-02-16T01:31:41;5.60;;;2.40;;
79015;SDS011;72726;44.842;37.556;2024-02-16T01:32:42;5.93;;;2.58;;
79015;SDS011;72726;44.842;37.556;2024-02-16T01:33:44;6.97;;;3.13;;
79015;SDS011;72726;44.842;37.556;2024-02-16T01:34:45;6.53;;;2.42;;
79015;SDS011;72726;44.842;37.556;2024-02-16T01:35:49;8.90;;;3.30;;
79015;SDS011;72726;44.842;37.556;2024-02-16T01:36:51;8.30;;;3.78;;
79015;SDS011;72726;44.842;37.556;2024-02-16T01:37:52;7.72;;;3.67;;
79015;SDS011;72726;44.842;37.556;2024-02-16T01:38:53;8.07;;;3.80;;
79015;SDS011;72726;44.842;37.556;2024-02-16T01:39:54;7.88;;;3.70;;
79015;SDS011;72726;44.842;37.556;2024-02-16T01:40:56;7.32;;;3.47;;
79015;SDS011;72726;44.842;37.556;2024-02-16T01:41:57;6.10;;;2.85;;
79015;SDS011;72726;44.842;37.556;2024-02-16T01:42:58;8.25;;;3.30;;
79015;SDS011;72726;44.842;37.556;2024-02-16T01:44:00;7.00;;;3.28;;
79015;SDS011;72726;44.842;37.556;2024-02-16T01:45:02;7.90;;;3.67;;
79015;SDS011;72726;44.842;37.556;2024-02-16T01:46:03;6.65;;;3.30;;
79015;SDS011;72726;44.842;37.556;2024-02-16T01:47:05;8.13;;;3.10;;
79015;SDS011;72726;44.842;37.556;2024-02-16T01:48:06;7.82;;;2.80;;
79015;SDS011;72726;44.842;37.556;2024-02-16T01:49:09;5.90;;;2.58;;
79015;SDS011;72726;44.842;37.556;2024-02-16T01:50:11;7.68;;;3.15;;
79015;SDS011;72726;44.842;37.556;2024-02-16T01:51:16;6.35;;;2.90;;
79015;SDS011;72726;44.842;37.556;2024-02-16T01:52:18;5.60;;;2.60;;
79015;SDS011;72726;44.842;37.556;2024-02-16T01:53:20;5.72;;;2.33;;
79015;SDS011;72726;44.842;37.556;2024-02-16T01:54:22;9.23;;;3.08;;
79015;SDS011;72726;44.842;37.556;2024-02-16T01:55:24;9.07;;;2.70;;
79015;SDS011;72726;44.842;37.556;2024-02-16T01:56:30;7.85;;;2.80;;
79015;SDS011;72726;44.842;37.556;2024-02-16T01:57:32;6.13;;;2.88;;
79015;SDS011;72726;44.842;37.556;2024-02-16T01:58:33;6.97;;;2.70;;
79015;SDS011;72726;44.842;37.556;2024-02-16T01:59:35;8.40;;;2.72;;
79015;SDS011;72726;44.842;37.556;2024-02-16T02:00:37;5.82;;;2.50;;
79015;SDS011;72726;44.842;37.556;2024-02-16T02:01:40;6.80;;;2.50;;
79015;SDS011;72726;44.842;37.556;2024-02-16T02:02:41;6.20;;;2.50;;
79015;SDS011;72726;44.842;37.556;2024-02-16T02:03:46;5.68;;;2.38;;
79015;SDS011;72726;44.842;37.556;2024-02-16T02:04:47;5.25;;;2.55;;
79015;SDS011;72726;44.842;37.556;2024-02-16T02:05:48;5.50;;;2.28;;
79015;SDS011;72726;44.842;37.556;2024-02-16T02:06:51;6.40;;;2.53;;
79015;SDS011;72726;44.842;37.556;2024-02-16T02:07:53;5.50;;;2.25;;
79015;SDS011;72726;44.842;37.556;2024-02-16T02:08:54;5.32;;;2.53;;
79015;SDS011;72726;44.842;37.556;2024-02-16T02:09:55;5.57;;;2.25;;
79015;SDS011;72726;44.842;37.556;2024-02-16T02:10:57;7.03;;;2.40;;
79015;SDS011;72726;44.842;37.556;2024-02-16T02:11:58;5.78;;;2.40;;
79015;SDS011;72726;44.842;37.556;2024-02-16T02:12:59;6.30;;;2.70;;
79015;SDS011;72726;44.842;37.556;2024-02-16T02:14:00;6.78;;;2.55;;
79015;SDS011;72726;44.842;37.556;2024-02-16T02:15:02;5.95;;;2.60;;
79015;SDS011;72726;44.842;37.556;2024-02-16T02:16:04;7.10;;;3.17;;
79015;SDS011;72726;44.842;37.556;2024-02-16T02:17:06;5.68;;;2.10;;
79015;SDS011;72726;44.842;37.556;2024-02-16T02:18:08;6.88;;;2.50;;
79015;SDS011;72726;44.842;37.556;2024-02-16T02:19:09;6.65;;;2.75;;
79015;SDS011;72726;44.842;37.556;2024-02-16T02:20:10;6.53;;;2.58;;
79015;SDS011;72726;44.842;37.556;2024-02-16T02:21:12;7.30;;;2.28;;
79015;SDS011;72726;44.842;37.556;2024-02-16T02:22:18;7.05;;;2.58;;
79015;SDS011;72726;44.842;37.556;2024-02-16T02:23:20;6.47;;;2.92;;
79015;SDS011;72726;44.842;37.556;2024-02-16T02:24:22;5.35;;;2.45;;
79015;SDS011;72726;44.842;37.556;2024-02-16T02:25:23;7.85;;;3.05;;
79015;SDS011;72726;44.842;37.556;2024-02-16T02:26:24;6.57;;;2.55;;
79015;SDS011;72726;44.842;37.556;2024-02-16T02:27:26;6.65;;;2.75;;
79015;SDS011;72726;44.842;37.556;2024-02-16T02:28:27;6.60;;;2.60;;
79015;SDS011;72726;44.842;37.556;2024-02-16T02:29:30;6.43;;;2.70;;
79015;SDS011;72726;44.842;37.556;2024-02-16T02:30:31;7.57;;;3.03;;
79015;SDS011;72726;44.842;37.556;2024-02-16T02:31:32;5.55;;;2.67;;
79015;SDS011;72726;44.842;37.556;2024-02-16T02:32:34;6.85;;;2.97;;
79015;SDS011;72726;44.842;37.556;2024-02-16T02:33:35;5.22;;;2.55;;
79015;SDS011;72726;44.842;37.556;2024-02-16T02:34:36;5.28;;;2.42;;
79015;SDS011;72726;44.842;37.556;2024-02-16T02:35:38;6.93;;;2.88;;
79015;SDS011;72726;44.842;37.556;2024-02-16T02:36:39;8.55;;;2.83;;
79015;SDS011;72726;44.842;37.556;2024-02-16T02:37:41;7.28;;;2.67;;
79015;SDS011;72726;44.842;37.556;2024-02-16T02:38:43;7.28;;;2.78;;
79015;SDS011;72726;44.842;37.556;2024-02-16T02:39:45;6.10;;;2.55;;
79015;SDS011;72726;44.842;37.556;2024-02-16T02:40:46;5.18;;;2.20;;
79015;SDS011;72726;44.842;37.556;2024-02-16T02:41:48;5.13;;;2.10;;
79015;SDS011;72726;44.842;37.556;2024-02-16T02:42:49;7.55;;;2.47;;
79015;SDS011;72726;44.842;37.556;2024-02-16T02:43:51;8.00;;;3.10;;
79015;SDS011;72726;44.842;37.556;2024-02-16T02:44:53;7.50;;;2.80;;
79015;SDS011;72726;44.842;37.556;2024-02-16T02:45:54;7.05;;;3.20;;
79015;SDS011;72726;44.842;37.556;2024-02-16T02:46:55;5.72;;;2.63;;
79015;SDS011;72726;44.842;37.556;2024-02-16T02:47:57;7.00;;;3.00;;
79015;SDS011;72726;44.842;37.556;2024-02-16T02:48:58;5.78;;;2.60;;
79015;SDS011;72726;44.842;37.556;2024-02-16T02:49:59;6.32;;;2.67;;
79015;SDS011;72726;44.842;37.556;2024-02-16T02:51:01;7.88;;;3.05;;
79015;SDS011;72726;44.842;37.556;2024-02-16T02:52:03;6.55;;;2.80;;
79015;SDS011;72726;44.842;37.556;2024-02-16T02:53:05;6.05;;;2.55;;
79015;SDS011;72726;44.842;37.556;2024-02-16T02:54:06;6.75;;;3.10;;
79015;SDS011;72726;44.842;37.556;2024-02-16T02:55:08;6.18;;;2.78;;
79015;SDS011;72726;44.842;37.556;2024-02-16T02:56:12;7.05;;;2.80;;
79015;SDS011;72726;44.842;37.556;2024-02-16T02:57:13;6.55;;;2.60;;
79015;SDS011;72726;44.842;37.556;2024-02-16T02:58:14;6.57;;;2.80;;
79015;SDS011;72726;44.842;37.556;2024-02-16T02:59:15;5.68;;;2.50;;
79015;SDS011;72726;44.842;37.556;2024-02-16T03:00:17;8.68;;;3.88;;
79015;SDS011;72726;44.842;37.556;2024-02-16T03:01:19;6.45;;;2.80;;
79015;SDS011;72726;44.842;37.556;2024-02-16T03:02:23;6.78;;;2.90;;
79015;SDS011;72726;44.842;37.556;2024-02-16T03:03:24;6.90;;;3.17;;
79015;SDS011;72726;44.842;37.556;2024-02-16T03:04:26;6.70;;;3.30;;
79015;SDS011;72726;44.842;37.556;2024-02-16T03:05:27;8.85;;;2.97;;
79015;SDS011;72726;44.842;37.556;2024-02-16T03:06:29;6.90;;;2.90;;
79015;SDS011;72726;44.842;37.556;2024-02-16T03:07:30;6.65;;;2.67;;
79015;SDS011;72726;44.842;37.556;2024-02-16T03:08:31;8.27;;;3.10;;
79015;SDS011;72726;44.842;37.556;2024-02-16T03:09:33;5.65;;;2.90;;
79015;SDS011;72726;44.842;37.556;2024-02-16T03:10:34;6.05;;;2.70;;
79015;SDS011;72726;44.842;37.556;2024-02-16T03:11:36;6.50;;;3.05;;
79015;SDS011;72726;44.842;37.556;2024-02-16T03:12:38;7.10;;;3.38;;
79015;SDS011;72726;44.842;37.556;2024-02-16T03:13:39;7.35;;;2.83;;
79015;SDS011;72726;44.842;37.556;2024-02-16T03:14:41;7.22;;;2.72;;
79015;SDS011;72726;44.842;37.556;2024-02-16T03:15:42;7.50;;;3.10;;
79015;SDS011;72726;44.842;37.556;2024-02-16T03:16:44;7.00;;;2.88;;
79015;SDS011;72726;44.842;37.556;2024-02-16T03:17:45;6.28;;;2.80;;
79015;SDS011;72726;44.842;37.556;2024-02-16T03:18:46;5.57;;;2.42;;
79015;SDS011;72726;44.842;37.556;2024-02-16T03:19:47;7.97;;;2.70;;
79015;SDS011;72726;44.842;37.556;2024-02-16T03:20:49;5.32;;;2.55;;
79015;SDS011;72726;44.842;37.556;2024-02-16T03:21:51;6.95;;;2.63;;
79015;SDS011;72726;44.842;37.556;2024-02-16T03:22:52;7.07;;;2.72;;
79015;SDS011;72726;44.842;37.556;2024-02-16T03:23:54;5.25;;;2.38;;
79015;SDS011;72726;44.842;37.556;2024-02-16T03:24:55;7.32;;;2.95;;
79015;SDS011;72726;44.842;37.556;2024-02-16T03:25:57;5.85;;;2.70;;
79015;SDS011;72726;44.842;37.556;2024-02-16T03:26:58;6.85;;;2.90;;
79015;SDS011;72726;44.842;37.556;2024-02-16T03:27:59;7.45;;;2.90;;
79015;SDS011;72726;44.842;37.556;2024-02-16T03:29:01;8.70;;;2.97;;
79015;SDS011;72726;44.842;37.556;2024-02-16T03:30:04;7.80;;;2.88;;
79015;SDS011;72726;44.842;37.556;2024-02-16T03:31:07;7.00;;;3.10;;
79015;SDS011;72726;44.842;37.556;2024-02-16T03:32:15;6.25;;;2.30;;
79015;SDS011;72726;44.842;37.556;2024-02-16T03:33:17;6.25;;;2.53;;
79015;SDS011;72726;44.842;37.556;2024-02-16T03:34:19;6.95;;;2.78;;
79015;SDS011;72726;44.842;37.556;2024-02-16T03:35:20;6.85;;;2.88;;
79015;SDS011;72726;44.842;37.556;2024-02-16T03:36:21;6.70;;;2.65;;
79015;SDS011;72726;44.842;37.556;2024-02-16T03:37:23;6.00;;;2.53;;
79015;SDS011;72726;44.842;37.556;2024-02-16T03:38:25;6.47;;;2.58;;
79015;SDS011;72726;44.842;37.556;2024-02-16T03:39:27;7.43;;;2.97;;
79015;SDS011;72726;44.842;37.556;2024-02-16T03:40:28;7.40;;;2.90;;
79015;SDS011;72726;44.842;37.556;2024-02-16T03:41:30;7.22;;;2.63;;
79015;SDS011;72726;44.842;37.556;2024-02-16T03:42:31;7.10;;;2.85;;
79015;SDS011;72726;44.842;37.556;2024-02-16T03:43:32;6.70;;;2.60;;
79015;SDS011;72726;44.842;37.556;2024-02-16T03:44:34;7.93;;;3.10;;
79015;SDS011;72726;44.842;37.556;2024-02-16T03:45:35;6.93;;;3.00;;
79015;SDS011;72726;44.842;37.556;2024-02-16T03:46:36;6.05;;;3.03;;
79015;SDS011;72726;44.842;37.556;2024-02-16T03:47:39;5.80;;;2.85;;
79015;SDS011;72726;44.842;37.556;2024-02-16T03:48:42;6.30;;;2.70;;
79015;SDS011;72726;44.842;37.556;2024-02-16T03:49:45;5.53;;;2.55;;
79015;SDS011;72726;44.842;37.556;2024-02-16T03:50:46;7.15;;;2.95;;
79015;SDS011;72726;44.842;37.556;2024-02-16T03:51:48;9.35;;;2.55;;
79015;SDS011;72726;44.842;37.556;2024-02-16T03:52:49;6.70;;;2.65;;
79015;SDS011;72726;44.842;37.556;2024-02-16T03:53:50;6.50;;;2.72;;
79015;SDS011;72726;44.842;37.556;2024-02-16T03:54:52;7.18;;;3.35;;
79015;SDS011;72726;44.842;37.556;2024-02-16T03:55:53;6.18;;;2.75;;
79015;SDS011;72726;44.842;37.556;2024-02-16T03:56:55;7.00;;;3.08;;
79015;SDS011;72726;44.842;37.556;2024-02-16T03:57:56;6.00;;;2.92;;
79015;SDS011;72726;44.842;37.556;2024-02-16T03:58:57;7.55;;;2.92;;
79015;SDS011;72726;44.842;37.556;2024-02-16T03:59:59;6.35;;;2.80;;
79015;SDS011;72726;44.842;37.556;2024-02-16T04:01:00;6.70;;;3.00;;
79015;SDS011;72726;44.842;37.556;2024-02-16T04:02:02;7.57;;;2.58;;
79015;SDS011;72726;44.842;37.556;2024-02-16T04:03:04;6.15;;;2.72;;
79015;SDS011;72726;44.842;37.556;2024-02-16T04:04:05;7.55;;;2.53;;
79015;SDS011;72726;44.842;37.556;2024-02-16T04:05:06;6.70;;;2.45;;
79015;SDS011;72726;44.842;37.556;2024-02-16T04:06:08;6.22;;;2.63;;
79015;SDS011;72726;44.842;37.556;2024-02-16T04:07:10;6.35;;;2.72;;
79015;SDS011;72726;44.842;37.556;2024-02-16T04:08:11;7.07;;;2.90;;
79015;SDS011;72726;44.842;37.556;2024-02-16T04:09:13;6.55;;;2.67;;
79015;SDS011;72726;44.842;37.556;2024-02-16T04:10:14;5.60;;;2.38;;
79015;SDS011;72726;44.842;37.556;2024-02-16T04:11:15;5.97;;;2.80;;
79015;SDS011;72726;44.842;37.556;2024-02-16T04:12:17;5.78;;;2.17;;
79015;SDS011;72726;44.842;37.556;2024-02-16T04:13:18;6.10;;;2.20;;
79015;SDS011;72726;44.842;37.556;2024-02-16T04:14:19;4.95;;;1.65;;
79015;SDS011;72726;44.842;37.556;2024-02-16T04:15:20;5.10;;;2.03;;
79015;SDS011;72726;44.842;37.556;2024-02-16T04:16:22;8.05;;;2.35;;
79015;SDS011;72726;44.842;37.556;2024-02-16T04:17:25;6.15;;;2.35;;
79015;SDS011;72726;44.842;37.556;2024-02-16T04:18:26;6.90;;;2.55;;
79015;SDS011;72726;44.842;37.556;2024-02-16T04:19:28;5.75;;;2.42;;
79015;SDS011;72726;44.842;37.556;2024-02-16T04:20:30;5.47;;;2.40;;
79015;SDS011;72726;44.842;37.556;2024-02-16T04:21:31;5.00;;;2.30;;
79015;SDS011;72726;44.842;37.556;2024-02-16T04:22:32;5.00;;;2.20;;
79015;SDS011;72726;44.842;37.556;2024-02-16T04:23:38;4.43;;;2.10;;
79015;SDS011;72726;44.842;37.556;2024-02-16T04:24:39;5.30;;;2.35;;
79015;SDS011;72726;44.842;37.556;2024-02-16T04:25:41;5.47;;;2.42;;
79015;SDS011;72726;44.842;37.556;2024-02-16T04:26:42;5.28;;;2.53;;
79015;SDS011;72726;44.842;37.556;2024-02-16T04:27:43;5.55;;;2.30;;
79015;SDS011;72726;44.842;37.556;2024-02-16T04:28:44;6.00;;;2.00;;
79015;SDS011;72726;44.842;37.556;2024-02-16T04:29:46;5.00;;;2.20;;
79015;SDS011;72726;44.842;37.556;2024-02-16T04:30:47;4.97;;;2.00;;
79015;SDS011;72726;44.842;37.556;2024-02-16T04:31:48;4.85;;;1.90;;
79015;SDS011;72726;44.842;37.556;2024-02-16T04:32:50;4.88;;;2.00;;
79015;SDS011;72726;44.842;37.556;2024-02-16T04:33:51;14.60;;;2.83;;
79015;SDS011;72726;44.842;37.556;2024-02-16T04:34:54;5.57;;;2.13;;
79015;SDS011;72726;44.842;37.556;2024-02-16T04:35:58;4.47;;;2.10;;
79015;SDS011;72726;44.842;37.556;2024-02-16T04:36:59;5.60;;;2.03;;
79015;SDS011;72726;44.842;37.556;2024-02-16T04:38:00;6.05;;;2.60;;
79015;SDS011;72726;44.842;37.556;2024-02-16T04:39:02;4.38;;;2.17;;
79015;SDS011;72726;44.842;37.556;2024-02-16T04:40:04;7.18;;;2.63;;
79015;SDS011;72726;44.842;37.556;2024-02-16T04:41:06;5.25;;;2.42;;
79015;SDS011;72726;44.842;37.556;2024-02-16T04:42:08;6.65;;;2.78;;
79015;SDS011;72726;44.842;37.556;2024-02-16T04:43:10;6.70;;;2.85;;
79015;SDS011;72726;44.842;37.556;2024-02-16T04:44:11;6.78;;;2.40;;
79015;SDS011;72726;44.842;37.556;2024-02-16T04:45:13;5.88;;;2.40;;
79015;SDS011;72726;44.842;37.556;2024-02-16T04:46:15;6.10;;;2.20;;
79015;SDS011;72726;44.842;37.556;2024-02-16T04:47:17;7.43;;;2.88;;
79015;SDS011;72726;44.842;37.556;2024-02-16T04:48:18;5.57;;;1.95;;
79015;SDS011;72726;44.842;37.556;2024-02-16T04:49:20;7.22;;;2.83;;
79015;SDS011;72726;44.842;37.556;2024-02-16T04:50:22;7.35;;;2.30;;
79015;SDS011;72726;44.842;37.556;2024-02-16T04:51:23;7.63;;;2.60;;
79015;SDS011;72726;44.842;37.556;2024-02-16T04:52:25;5.90;;;2.38;;
79015;SDS011;72726;44.842;37.556;2024-02-16T04:53:28;5.18;;;2.20;;
79015;SDS011;72726;44.842;37.556;2024-02-16T04:54:29;6.63;;;2.53;;
79015;SDS011;72726;44.842;37.556;2024-02-16T04:55:30;5.78;;;2.58;;
79015;SDS011;72726;44.842;37.556;2024-02-16T04:56:32;5.68;;;2.30;;
79015;SDS011;72726;44.842;37.556;2024-02-16T04:57:33;4.57;;;1.90;;
79015;SDS011;72726;44.842;37.556;2024-02-16T04:58:35;6.53;;;2.00;;
79015;SDS011;72726;44.842;37.556;2024-02-16T04:59:40;6.13;;;2.53;;
79015;SDS011;72726;44.842;37.556;2024-02-16T05:00:41;6.95;;;2.55;;
79015;SDS011;72726;44.842;37.556;2024-02-16T05:01:43;5.22;;;2.25;;
79015;SDS011;72726;44.842;37.556;2024-02-16T05:02:46;6.45;;;2.10;;
79015;SDS011;72726;44.842;37.556;2024-02-16T05:03:48;5.18;;;2.13;;
79015;SDS011;72726;44.842;37.556;2024-02-16T05:04:49;4.38;;;1.88;;
79015;SDS011;72726;44.842;37.556;2024-02-16T05:05:50;7.70;;;2.30;;
79015;SDS011;72726;44.842;37.556;2024-02-16T05:06:53;5.55;;;2.00;;
79015;SDS011;72726;44.842;37.556;2024-02-16T05:07:58;5.07;;;2.00;;
79015;SDS011;72726;44.842;37.556;2024-02-16T05:08:59;5.65;;;2.40;;
79015;SDS011;72726;44.842;37.556;2024-02-16T05:10:01;5.28;;;2.05;;
79015;SDS011;72726;44.842;37.556;2024-02-16T05:11:02;5.18;;;2.50;;
79015;SDS011;72726;44.842;37.556;2024-02-16T05:12:04;5.68;;;2.40;;
79015;SDS011;72726;44.842;37.556;2024-02-16T05:13:06;6.03;;;2.22;;
79015;SDS011;72726;44.842;37.556;2024-02-16T05:14:07;4.78;;;1.92;;
79015;SDS011;72726;44.842;37.556;2024-02-16T05:15:09;5.47;;;2.40;;
79015;SDS011;72726;44.842;37.556;2024-02-16T05:16:10;5.15;;;2.22;;
79015;SDS011;72726;44.842;37.556;2024-02-16T05:17:12;5.10;;;2.30;;
79015;SDS011;72726;44.842;37.556;2024-02-16T05:18:13;5.47;;;2.35;;
79015;SDS011;72726;44.842;37.556;2024-02-16T05:19:14;5.70;;;2.65;;
79015;SDS011;72726;44.842;37.556;2024-02-16T05:20:16;6.22;;;3.05;;
79015;SDS011;72726;44.842;37.556;2024-02-16T05:21:18;7.55;;;2.60;;
79015;SDS011;72726;44.842;37.556;2024-02-16T05:22:20;7.40;;;2.40;;
79015;SDS011;72726;44.842;37.556;2024-02-16T05:23:22;6.50;;;2.45;;
79015;SDS011;72726;44.842;37.556;2024-02-16T05:24:24;5.82;;;2.50;;
79015;SDS011;72726;44.842;37.556;2024-02-16T05:25:25;6.80;;;2.40;;
79015;SDS011;72726;44.842;37.556;2024-02-16T05:26:26;5.70;;;1.98;;
79015;SDS011;72726;44.842;37.556;2024-02-16T05:27:27;5.28;;;1.95;;
79015;SDS011;72726;44.842;37.556;2024-02-16T05:28:29;5.22;;;2.00;;
79015;SDS011;72726;44.842;37.556;2024-02-16T05:29:30;5.95;;;2.00;;
79015;SDS011;72726;44.842;37.556;2024-02-16T05:30:31;5.90;;;2.33;;
79015;SDS011;72726;44.842;37.556;2024-02-16T05:31:33;6.60;;;2.55;;
79015;SDS011;72726;44.842;37.556;2024-02-16T05:32:37;5.70;;;2.72;;
79015;SDS011;72726;44.842;37.556;2024-02-16T05:33:38;6.93;;;2.65;;
79015;SDS011;72726;44.842;37.556;2024-02-16T05:34:40;5.43;;;2.05;;
79015;SDS011;72726;44.842;37.556;2024-02-16T05:35:41;7.38;;;2.60;;
79015;SDS011;72726;44.842;37.556;2024-02-16T05:36:45;5.20;;;2.58;;
79015;SDS011;72726;44.842;37.556;2024-02-16T05:37:47;7.72;;;2.80;;
79015;SDS011;72726;44.842;37.556;2024-02-16T05:38:58;5.40;;;2.42;;
79015;SDS011;72726;44.842;37.556;2024-02-16T05:40:10;6.40;;;2.70;;
79015;SDS011;72726;44.842;37.556;2024-02-16T05:41:29;6.40;;;2.38;;
79015;SDS011;72726;44.842;37.556;2024-02-16T05:42:31;7.88;;;2.15;;
79015;SDS011;72726;44.842;37.556;2024-02-16T05:43:32;5.57;;;2.33;;
79015;SDS011;72726;44.842;37.556;2024-02-16T05:44:34;5.63;;;2.67;;
79015;SDS011;72726;44.842;37.556;2024-02-16T05:45:35;6.45;;;2.53;;
79015;SDS011;72726;44.842;37.556;2024-02-16T05:46:37;8.18;;;2.33;;
79015;SDS011;72726;44.842;37.556;2024-02-16T05:47:38;6.03;;;2.33;;
79015;SDS011;72726;44.842;37.556;2024-02-16T05:48:40;5.88;;;2.35;;
79015;SDS011;72726;44.842;37.556;2024-02-16T05:49:41;5.80;;;2.42;;
79015;SDS011;72726;44.842;37.556;2024-02-16T05:50:43;7.15;;;2.33;;
79015;SDS011;72726;44.842;37.556;2024-02-16T05:51:44;5.88;;;2.50;;
79015;SDS011;72726;44.842;37.556;2024-02-16T05:53:07;10.35;;;2.53;;
79015;SDS011;72726;44.842;37.556;2024-02-16T05:54:10;6.55;;;2.50;;
79015;SDS011;72726;44.842;37.556;2024-02-16T05:55:13;7.38;;;2.10;;
79015;SDS011;72726;44.842;37.556;2024-02-16T05:56:14;5.75;;;2.42;;
79015;SDS011;72726;44.842;37.556;2024-02-16T05:57:16;7.22;;;2.40;;
79015;SDS011;72726;44.842;37.556;2024-02-16T05:58:17;5.70;;;2.25;;
79015;SDS011;72726;44.842;37.556;2024-02-16T05:59:19;4.82;;;2.42;;
79015;SDS011;72726;44.842;37.556;2024-02-16T06:00:20;4.57;;;2.03;;
79015;SDS011;72726;44.842;37.556;2024-02-16T06:01:22;5.45;;;2.08;;
79015;SDS011;72726;44.842;37.556;2024-02-16T06:02:23;6.03;;;2.28;;
79015;SDS011;72726;44.842;37.556;2024-02-16T06:03:28;6.72;;;2.70;;
79015;SDS011;72726;44.842;37.556;2024-02-16T06:04:29;6.95;;;2.47;;
79015;SDS011;72726;44.842;37.556;2024-02-16T06:05:30;6.97;;;2.42;;
79015;SDS011;72726;44.842;37.556;2024-02-16T06:06:35;8.32;;;2.75;;